sensor_id;sensor_type;location;lat;lon;timestamp;P1;durP1;ratioP1;P2;durP2;ratioP2
14681;SDS011;7429;52.498;13.480;2023-04-15T00:01:38;50.33;;;33.00;;
14681;SDS011;7429;52.498;13.480;2023-04-15T00:04:43;55.50;;;36.27;;
14681;SDS011;7429;52.498;13.480;2023-04-15T00:07:47;52.90;;;34.90;;
14681;SDS011;7429;52.498;13.480;2023-04-15T00:10:50;52.73;;;34.63;;
14681;SDS011;7429;52.498;13.480;2023-04-15T00:13:54;52.97;;;35.30;;
14681;SDS011;7429;52.498;13.480;2023-04-15T00:17:02;50.97;;;35.03;;
14681;SDS011;7429;52.498;13.480;2023-04-15T00:20:08;56.60;;;36.57;;
14681;SDS011;7429;52.498;13.480;2023-04-15T00:23:15;54.17;;;35.00;;
14681;SDS011;7429;52.498;13.480;2023-04-15T00:26:19;54.20;;;35.93;;
14681;SDS011;7429;52.498;13.480;2023-04-15T00:29:24;60.83;;;38.17;;
14681;SDS011;7429;52.498;13.480;2023-04-15T00:32:28;57.90;;;37.20;;
14681;SDS011;7429;52.498;13.480;2023-04-15T00:35:31;52.80;;;35.23;;
14681;SDS011;7429;52.498;13.480;2023-04-15T00:38:37;61.73;;;37.60;;
14681;SDS011;7429;52.498;13.480;2023-04-15T00:41:40;59.20;;;37.37;;
14681;SDS011;7429;52.498;13.480;2023-04-15T00:44:45;59.90;;;39.97;;
14681;SDS011;7429;52.498;13.480;2023-04-15T00:47:49;60.23;;;40.67;;
14681;SDS011;7429;52.498;13.480;2023-04-15T00:50:52;63.40;;;40.23;;
14681;SDS011;7429;52.498;13.480;2023-04-15T00:53:56;65.23;;;40.40;;
14681;SDS011;7429;52.498;13.480;2023-04-15T00:57:00;62.33;;;41.33;;
14681;SDS011;7429;52.498;13.480;2023-04-15T01:00:08;63.97;;;40.93;;
14681;SDS011;7429;52.498;13.480;2023-04-15T01:03:13;61.57;;;38.07;;
14681;SDS011;7429;52.498;13.480;2023-04-15T01:06:17;65.40;;;40.73;;
14681;SDS011;7429;52.498;13.480;2023-04-15T01:09:20;65.30;;;39.10;;
14681;SDS011;7429;52.498;13.480;2023-04-15T01:12:25;70.10;;;41.17;;
14681;SDS011;7429;52.498;13.480;2023-04-15T01:15:30;69.50;;;39.67;;
14681;SDS011;7429;52.498;13.480;2023-04-15T01:18:34;64.63;;;39.50;;
14681;SDS011;7429;52.498;13.480;2023-04-15T01:21:40;67.97;;;41.10;;
14681;SDS011;7429;52.498;13.480;2023-04-15T01:24:44;69.97;;;41.73;;
14681;SDS011;7429;52.498;13.480;2023-04-15T01:28:05;64.90;;;38.73;;
14681;SDS011;7429;52.498;13.480;2023-04-15T01:31:11;66.50;;;40.50;;
14681;SDS011;7429;52.498;13.480;2023-04-15T01:34:19;68.03;;;39.73;;
14681;SDS011;7429;52.498;13.480;2023-04-15T01:37:45;66.37;;;40.67;;
14681;SDS011;7429;52.498;13.480;2023-04-15T01:40:50;70.50;;;43.33;;
14681;SDS011;7429;52.498;13.480;2023-04-15T01:44:01;70.80;;;42.40;;
14681;SDS011;7429;52.498;13.480;2023-04-15T01:47:05;72.73;;;42.57;;
14681;SDS011;7429;52.498;13.480;2023-04-15T01:50:12;71.73;;;42.57;;
14681;SDS011;7429;52.498;13.480;2023-04-15T01:53:16;71.03;;;42.77;;
14681;SDS011;7429;52.498;13.480;2023-04-15T01:56:21;73.80;;;41.60;;
14681;SDS011;7429;52.498;13.480;2023-04-15T01:59:29;72.63;;;41.63;;
14681;SDS011;7429;52.498;13.480;2023-04-15T02:02:33;69.07;;;40.33;;
14681;SDS011;7429;52.498;13.480;2023-04-15T02:05:38;73.77;;;40.53;;
14681;SDS011;7429;52.498;13.480;2023-04-15T02:08:45;66.87;;;38.93;;
14681;SDS011;7429;52.498;13.480;2023-04-15T02:11:50;66.70;;;40.47;;
14681;SDS011;7429;52.498;13.480;2023-04-15T02:14:56;66.30;;;39.20;;
14681;SDS011;7429;52.498;13.480;2023-04-15T02:18:01;67.53;;;39.87;;
14681;SDS011;7429;52.498;13.480;2023-04-15T02:21:05;72.63;;;40.13;;
14681;SDS011;7429;52.498;13.480;2023-04-15T02:24:11;69.27;;;39.37;;
14681;SDS011;7429;52.498;13.480;2023-04-15T02:27:16;68.00;;;38.50;;
14681;SDS011;7429;52.498;13.480;2023-04-15T02:30:22;65.63;;;40.27;;
14681;SDS011;7429;52.498;13.480;2023-04-15T02:33:27;59.17;;;38.17;;
14681;SDS011;7429;52.498;13.480;2023-04-15T02:36:34;65.20;;;38.27;;
14681;SDS011;7429;52.498;13.480;2023-04-15T02:39:40;65.27;;;37.60;;
14681;SDS011;7429;52.498;13.480;2023-04-15T02:42:45;75.03;;;40.47;;
14681;SDS011;7429;52.498;13.480;2023-04-15T02:45:52;66.17;;;37.73;;
14681;SDS011;7429;52.498;13.480;2023-04-15T02:48:57;69.27;;;39.43;;
14681;SDS011;7429;52.498;13.480;2023-04-15T02:52:03;67.30;;;39.37;;
14681;SDS011;7429;52.498;13.480;2023-04-15T02:55:08;61.37;;;35.97;;
14681;SDS011;7429;52.498;13.480;2023-04-15T02:58:13;67.00;;;36.63;;
14681;SDS011;7429;52.498;13.480;2023-04-15T03:01:20;61.93;;;38.27;;
14681;SDS011;7429;52.498;13.480;2023-04-15T03:04:24;59.73;;;36.27;;
14681;SDS011;7429;52.498;13.480;2023-04-15T03:07:31;59.53;;;36.50;;
14681;SDS011;7429;52.498;13.480;2023-04-15T03:10:37;74.17;;;38.43;;
14681;SDS011;7429;52.498;13.480;2023-04-15T03:13:42;57.17;;;36.10;;
14681;SDS011;7429;52.498;13.480;2023-04-15T03:16:59;60.37;;;36.07;;
14681;SDS011;7429;52.498;13.480;2023-04-15T03:20:04;53.97;;;34.57;;
14681;SDS011;7429;52.498;13.480;2023-04-15T03:23:10;62.53;;;38.10;;
14681;SDS011;7429;52.498;13.480;2023-04-15T03:26:22;65.23;;;37.07;;
14681;SDS011;7429;52.498;13.480;2023-04-15T03:29:29;57.83;;;34.80;;
14681;SDS011;7429;52.498;13.480;2023-04-15T03:32:35;57.50;;;35.97;;
14681;SDS011;7429;52.498;13.480;2023-04-15T03:35:41;56.73;;;36.93;;
14681;SDS011;7429;52.498;13.480;2023-04-15T03:38:46;58.80;;;36.77;;
14681;SDS011;7429;52.498;13.480;2023-04-15T03:41:50;56.43;;;36.73;;
14681;SDS011;7429;52.498;13.480;2023-04-15T03:44:55;56.37;;;35.90;;
14681;SDS011;7429;52.498;13.480;2023-04-15T03:48:01;56.23;;;34.57;;
14681;SDS011;7429;52.498;13.480;2023-04-15T03:51:19;57.67;;;35.33;;
14681;SDS011;7429;52.498;13.480;2023-04-15T03:54:23;57.60;;;34.10;;
14681;SDS011;7429;52.498;13.480;2023-04-15T03:57:28;48.93;;;33.07;;
14681;SDS011;7429;52.498;13.480;2023-04-15T04:00:32;51.20;;;33.90;;
14681;SDS011;7429;52.498;13.480;2023-04-15T04:03:38;50.40;;;32.53;;
14681;SDS011;7429;52.498;13.480;2023-04-15T04:06:43;46.20;;;30.67;;
14681;SDS011;7429;52.498;13.480;2023-04-15T04:09:48;50.20;;;32.47;;
14681;SDS011;7429;52.498;13.480;2023-04-15T04:12:52;47.40;;;31.70;;
14681;SDS011;7429;52.498;13.480;2023-04-15T04:15:56;49.20;;;31.73;;
14681;SDS011;7429;52.498;13.480;2023-04-15T04:19:02;41.37;;;28.23;;
14681;SDS011;7429;52.498;13.480;2023-04-15T04:22:06;41.53;;;29.87;;
14681;SDS011;7429;52.498;13.480;2023-04-15T04:25:10;42.30;;;28.73;;
14681;SDS011;7429;52.498;13.480;2023-04-15T04:28:14;45.03;;;30.27;;
14681;SDS011;7429;52.498;13.480;2023-04-15T04:31:19;42.87;;;30.43;;
14681;SDS011;7429;52.498;13.480;2023-04-15T04:34:24;38.80;;;28.33;;
14681;SDS011;7429;52.498;13.480;2023-04-15T04:37:29;39.70;;;27.70;;
14681;SDS011;7429;52.498;13.480;2023-04-15T04:40:34;40.13;;;28.57;;
14681;SDS011;7429;52.498;13.480;2023-04-15T04:43:38;37.50;;;28.67;;
14681;SDS011;7429;52.498;13.480;2023-04-15T04:46:42;38.67;;;29.03;;
14681;SDS011;7429;52.498;13.480;2023-04-15T04:49:49;43.13;;;28.33;;
14681;SDS011;7429;52.498;13.480;2023-04-15T04:52:53;39.27;;;26.77;;
14681;SDS011;7429;52.498;13.480;2023-04-15T04:55:57;34.77;;;26.10;;
14681;SDS011;7429;52.498;13.480;2023-04-15T04:59:02;37.47;;;29.17;;
14681;SDS011;7429;52.498;13.480;2023-04-15T05:02:06;33.83;;;25.87;;
14681;SDS011;7429;52.498;13.480;2023-04-15T05:05:12;38.80;;;26.43;;
14681;SDS011;7429;52.498;13.480;2023-04-15T05:08:16;37.83;;;26.80;;
14681;SDS011;7429;52.498;13.480;2023-04-15T05:11:23;38.17;;;28.27;;
14681;SDS011;7429;52.498;13.480;2023-04-15T05:14:28;34.53;;;28.03;;
14681;SDS011;7429;52.498;13.480;2023-04-15T05:17:32;38.77;;;26.67;;
14681;SDS011;7429;52.498;13.480;2023-04-15T05:20:38;33.27;;;26.03;;
14681;SDS011;7429;52.498;13.480;2023-04-15T05:23:43;32.27;;;23.23;;
14681;SDS011;7429;52.498;13.480;2023-04-15T05:26:47;29.83;;;21.27;;
14681;SDS011;7429;52.498;13.480;2023-04-15T05:29:51;27.43;;;23.07;;
14681;SDS011;7429;52.498;13.480;2023-04-15T05:32:58;30.20;;;22.93;;
14681;SDS011;7429;52.498;13.480;2023-04-15T05:36:07;27.40;;;22.40;;
14681;SDS011;7429;52.498;13.480;2023-04-15T05:39:12;25.27;;;21.50;;
14681;SDS011;7429;52.498;13.480;2023-04-15T05:42:20;28.13;;;21.27;;
14681;SDS011;7429;52.498;13.480;2023-04-15T05:45:24;29.57;;;22.13;;
14681;SDS011;7429;52.498;13.480;2023-04-15T05:48:29;28.40;;;21.17;;
14681;SDS011;7429;52.498;13.480;2023-04-15T05:51:35;28.07;;;20.63;;
14681;SDS011;7429;52.498;13.480;2023-04-15T05:54:40;25.83;;;19.90;;
14681;SDS011;7429;52.498;13.480;2023-04-15T05:57:44;22.47;;;19.73;;
14681;SDS011;7429;52.498;13.480;2023-04-15T06:00:48;27.83;;;20.00;;
14681;SDS011;7429;52.498;13.480;2023-04-15T06:03:52;30.93;;;20.80;;
14681;SDS011;7429;52.498;13.480;2023-04-15T06:06:58;24.10;;;18.70;;
14681;SDS011;7429;52.498;13.480;2023-04-15T06:10:04;25.80;;;20.57;;
14681;SDS011;7429;52.498;13.480;2023-04-15T06:13:10;25.83;;;19.50;;
14681;SDS011;7429;52.498;13.480;2023-04-15T06:16:15;24.23;;;18.57;;
14681;SDS011;7429;52.498;13.480;2023-04-15T06:19:20;21.23;;;17.97;;
14681;SDS011;7429;52.498;13.480;2023-04-15T06:22:25;22.60;;;18.93;;
14681;SDS011;7429;52.498;13.480;2023-04-15T06:25:29;21.20;;;17.73;;
14681;SDS011;7429;52.498;13.480;2023-04-15T06:28:39;24.13;;;19.80;;
14681;SDS011;7429;52.498;13.480;2023-04-15T06:31:43;26.50;;;19.07;;
14681;SDS011;7429;52.498;13.480;2023-04-15T06:34:49;22.03;;;19.60;;
14681;SDS011;7429;52.498;13.480;2023-04-15T06:37:55;23.20;;;18.87;;
14681;SDS011;7429;52.498;13.480;2023-04-15T06:40:59;22.37;;;18.63;;
14681;SDS011;7429;52.498;13.480;2023-04-15T06:44:03;25.20;;;17.93;;
14681;SDS011;7429;52.498;13.480;2023-04-15T06:47:11;23.67;;;18.13;;
14681;SDS011;7429;52.498;13.480;2023-04-15T06:50:16;21.60;;;17.43;;
14681;SDS011;7429;52.498;13.480;2023-04-15T06:53:22;22.43;;;17.13;;
14681;SDS011;7429;52.498;13.480;2023-04-15T06:56:27;21.07;;;18.30;;
14681;SDS011;7429;52.498;13.480;2023-04-15T06:59:32;22.73;;;17.27;;
14681;SDS011;7429;52.498;13.480;2023-04-15T07:02:37;23.00;;;20.60;;
14681;SDS011;7429;52.498;13.480;2023-04-15T07:05:41;21.80;;;19.10;;
14681;SDS011;7429;52.498;13.480;2023-04-15T07:08:49;19.47;;;17.47;;
14681;SDS011;7429;52.498;13.480;2023-04-15T07:11:54;17.77;;;15.97;;
14681;SDS011;7429;52.498;13.480;2023-04-15T07:15:00;17.70;;;15.80;;
14681;SDS011;7429;52.498;13.480;2023-04-15T07:18:05;19.67;;;17.03;;
14681;SDS011;7429;52.498;13.480;2023-04-15T07:21:09;21.77;;;16.40;;
14681;SDS011;7429;52.498;13.480;2023-04-15T07:24:15;18.60;;;15.57;;
14681;SDS011;7429;52.498;13.480;2023-04-15T07:27:21;20.03;;;18.17;;
14681;SDS011;7429;52.498;13.480;2023-04-15T07:30:25;20.47;;;18.37;;
14681;SDS011;7429;52.498;13.480;2023-04-15T07:33:30;19.13;;;17.13;;
14681;SDS011;7429;52.498;13.480;2023-04-15T07:36:34;20.90;;;18.07;;
14681;SDS011;7429;52.498;13.480;2023-04-15T07:39:40;22.00;;;17.43;;
14681;SDS011;7429;52.498;13.480;2023-04-15T07:42:45;21.80;;;17.43;;
14681;SDS011;7429;52.498;13.480;2023-04-15T07:45:51;20.90;;;18.23;;
14681;SDS011;7429;52.498;13.480;2023-04-15T07:48:57;20.17;;;17.87;;
14681;SDS011;7429;52.498;13.480;2023-04-15T07:52:02;19.77;;;17.13;;
14681;SDS011;7429;52.498;13.480;2023-04-15T07:55:11;19.23;;;17.03;;
14681;SDS011;7429;52.498;13.480;2023-04-15T07:58:16;22.50;;;18.20;;
14681;SDS011;7429;52.498;13.480;2023-04-15T08:01:20;20.70;;;17.73;;
14681;SDS011;7429;52.498;13.480;2023-04-15T08:04:28;21.03;;;17.93;;
14681;SDS011;7429;52.498;13.480;2023-04-15T08:07:36;20.17;;;18.03;;
14681;SDS011;7429;52.498;13.480;2023-04-15T08:10:42;19.17;;;17.20;;
14681;SDS011;7429;52.498;13.480;2023-04-15T08:13:47;25.17;;;19.60;;
14681;SDS011;7429;52.498;13.480;2023-04-15T08:16:51;21.97;;;19.53;;
14681;SDS011;7429;52.498;13.480;2023-04-15T08:19:56;22.07;;;18.03;;
14681;SDS011;7429;52.498;13.480;2023-04-15T08:23:02;20.93;;;18.63;;
14681;SDS011;7429;52.498;13.480;2023-04-15T08:26:09;22.03;;;19.77;;
14681;SDS011;7429;52.498;13.480;2023-04-15T08:29:15;23.77;;;19.77;;
14681;SDS011;7429;52.498;13.480;2023-04-15T08:32:20;22.53;;;20.23;;
14681;SDS011;7429;52.498;13.480;2023-04-15T08:35:28;24.23;;;21.63;;
14681;SDS011;7429;52.498;13.480;2023-04-15T08:38:33;22.57;;;20.00;;
14681;SDS011;7429;52.498;13.480;2023-04-15T08:41:40;24.80;;;22.33;;
14681;SDS011;7429;52.498;13.480;2023-04-15T08:44:50;23.47;;;21.03;;
14681;SDS011;7429;52.498;13.480;2023-04-15T08:47:54;23.53;;;21.20;;
14681;SDS011;7429;52.498;13.480;2023-04-15T08:51:00;26.57;;;21.70;;
14681;SDS011;7429;52.498;13.480;2023-04-15T08:54:05;32.17;;;28.77;;
14681;SDS011;7429;52.498;13.480;2023-04-15T08:57:12;24.57;;;22.07;;
14681;SDS011;7429;52.498;13.480;2023-04-15T09:00:17;25.83;;;23.07;;
14681;SDS011;7429;52.498;13.480;2023-04-15T09:03:22;23.40;;;20.90;;
14681;SDS011;7429;52.498;13.480;2023-04-15T09:06:30;23.37;;;20.90;;
14681;SDS011;7429;52.498;13.480;2023-04-15T09:09:34;23.80;;;21.30;;
14681;SDS011;7429;52.498;13.480;2023-04-15T09:12:43;22.57;;;20.23;;
14681;SDS011;7429;52.498;13.480;2023-04-15T09:15:47;24.30;;;21.70;;
14681;SDS011;7429;52.498;13.480;2023-04-15T09:18:55;25.77;;;23.37;;
14681;SDS011;7429;52.498;13.480;2023-04-15T09:21:59;29.27;;;26.47;;
14681;SDS011;7429;52.498;13.480;2023-04-15T09:25:08;24.07;;;19.20;;
14681;SDS011;7429;52.498;13.480;2023-04-15T09:28:30;24.83;;;20.50;;
14681;SDS011;7429;52.498;13.480;2023-04-15T09:31:37;22.77;;;20.33;;
14681;SDS011;7429;52.498;13.480;2023-04-15T09:34:42;22.13;;;19.93;;
14681;SDS011;7429;52.498;13.480;2023-04-15T09:37:47;21.83;;;19.40;;
14681;SDS011;7429;52.498;13.480;2023-04-15T09:40:52;21.10;;;18.80;;
14681;SDS011;7429;52.498;13.480;2023-04-15T09:43:58;21.00;;;18.90;;
14681;SDS011;7429;52.498;13.480;2023-04-15T09:47:03;22.20;;;19.83;;
14681;SDS011;7429;52.498;13.480;2023-04-15T09:50:08;24.63;;;21.93;;
14681;SDS011;7429;52.498;13.480;2023-04-15T09:53:15;26.53;;;23.97;;
14681;SDS011;7429;52.498;13.480;2023-04-15T09:56:21;23.80;;;21.43;;
14681;SDS011;7429;52.498;13.480;2023-04-15T09:59:28;25.37;;;23.10;;
14681;SDS011;7429;52.498;13.480;2023-04-15T10:02:33;24.80;;;22.40;;
14681;SDS011;7429;52.498;13.480;2023-04-15T10:05:38;23.60;;;21.30;;
14681;SDS011;7429;52.498;13.480;2023-04-15T10:08:43;23.90;;;21.80;;
14681;SDS011;7429;52.498;13.480;2023-04-15T10:11:47;20.07;;;18.07;;
14681;SDS011;7429;52.498;13.480;2023-04-15T10:14:59;23.73;;;21.17;;
14681;SDS011;7429;52.498;13.480;2023-04-15T10:18:07;21.20;;;19.00;;
14681;SDS011;7429;52.498;13.480;2023-04-15T10:21:14;21.10;;;18.83;;
14681;SDS011;7429;52.498;13.480;2023-04-15T10:24:20;22.20;;;19.93;;
14681;SDS011;7429;52.498;13.480;2023-04-15T10:27:29;24.07;;;21.43;;
14681;SDS011;7429;52.498;13.480;2023-04-15T10:30:34;20.87;;;18.77;;
14681;SDS011;7429;52.498;13.480;2023-04-15T10:33:40;22.07;;;19.40;;
14681;SDS011;7429;52.498;13.480;2023-04-15T10:36:44;22.23;;;19.60;;
14681;SDS011;7429;52.498;13.480;2023-04-15T10:39:49;19.40;;;17.40;;
14681;SDS011;7429;52.498;13.480;2023-04-15T10:42:54;19.17;;;17.33;;
14681;SDS011;7429;52.498;13.480;2023-04-15T10:46:00;20.27;;;17.93;;
14681;SDS011;7429;52.498;13.480;2023-04-15T10:49:08;20.27;;;18.17;;
14681;SDS011;7429;52.498;13.480;2023-04-15T10:52:15;22.63;;;18.17;;
14681;SDS011;7429;52.498;13.480;2023-04-15T10:55:21;19.90;;;17.90;;
14681;SDS011;7429;52.498;13.480;2023-04-15T10:58:27;18.17;;;16.43;;
14681;SDS011;7429;52.498;13.480;2023-04-15T11:01:53;19.93;;;16.70;;
14681;SDS011;7429;52.498;13.480;2023-04-15T11:05:01;18.53;;;16.73;;
14681;SDS011;7429;52.498;13.480;2023-04-15T11:08:07;20.00;;;17.90;;
14681;SDS011;7429;52.498;13.480;2023-04-15T11:11:12;18.40;;;16.60;;
14681;SDS011;7429;52.498;13.480;2023-04-15T11:14:17;17.83;;;16.03;;
14681;SDS011;7429;52.498;13.480;2023-04-15T11:17:27;19.27;;;17.23;;
14681;SDS011;7429;52.498;13.480;2023-04-15T11:20:31;18.40;;;16.50;;
14681;SDS011;7429;52.498;13.480;2023-04-15T11:23:37;18.67;;;16.63;;
14681;SDS011;7429;52.498;13.480;2023-04-15T11:26:45;18.40;;;16.60;;
14681;SDS011;7429;52.498;13.480;2023-04-15T11:29:50;18.13;;;16.13;;
14681;SDS011;7429;52.498;13.480;2023-04-15T11:32:56;18.27;;;16.37;;
14681;SDS011;7429;52.498;13.480;2023-04-15T11:36:03;19.97;;;16.27;;
14681;SDS011;7429;52.498;13.480;2023-04-15T11:39:15;17.77;;;15.93;;
14681;SDS011;7429;52.498;13.480;2023-04-15T11:42:20;17.07;;;15.30;;
14681;SDS011;7429;52.498;13.480;2023-04-15T11:45:24;19.47;;;16.73;;
14681;SDS011;7429;52.498;13.480;2023-04-15T11:48:31;17.13;;;15.53;;
14681;SDS011;7429;52.498;13.480;2023-04-15T11:51:37;18.77;;;16.63;;
14681;SDS011;7429;52.498;13.480;2023-04-15T11:54:40;17.40;;;15.70;;
14681;SDS011;7429;52.498;13.480;2023-04-15T11:57:43;15.73;;;14.13;;
14681;SDS011;7429;52.498;13.480;2023-04-15T12:00:47;17.20;;;14.93;;
14681;SDS011;7429;52.498;13.480;2023-04-15T12:04:34;17.33;;;14.53;;
14681;SDS011;7429;52.498;13.480;2023-04-15T12:07:56;18.13;;;16.23;;
14681;SDS011;7429;52.498;13.480;2023-04-15T12:11:00;17.53;;;15.67;;
14681;SDS011;7429;52.498;13.480;2023-04-15T12:14:05;16.63;;;14.93;;
14681;SDS011;7429;52.498;13.480;2023-04-15T12:17:13;17.87;;;16.07;;
14681;SDS011;7429;52.498;13.480;2023-04-15T12:20:21;17.37;;;15.70;;
14681;SDS011;7429;52.498;13.480;2023-04-15T12:23:27;16.93;;;15.33;;
14681;SDS011;7429;52.498;13.480;2023-04-15T12:26:33;17.03;;;15.37;;
14681;SDS011;7429;52.498;13.480;2023-04-15T12:29:39;18.53;;;16.63;;
14681;SDS011;7429;52.498;13.480;2023-04-15T12:32:44;16.93;;;13.90;;
14681;SDS011;7429;52.498;13.480;2023-04-15T12:35:52;16.43;;;14.87;;
14681;SDS011;7429;52.498;13.480;2023-04-15T12:38:56;16.90;;;15.23;;
14681;SDS011;7429;52.498;13.480;2023-04-15T12:41:59;16.93;;;15.33;;
14681;SDS011;7429;52.498;13.480;2023-04-15T12:45:03;16.73;;;15.07;;
14681;SDS011;7429;52.498;13.480;2023-04-15T12:48:07;15.47;;;14.03;;
14681;SDS011;7429;52.498;13.480;2023-04-15T12:51:14;15.57;;;14.00;;
14681;SDS011;7429;52.498;13.480;2023-04-15T12:54:19;15.53;;;13.90;;
14681;SDS011;7429;52.498;13.480;2023-04-15T12:57:23;14.17;;;12.73;;
14681;SDS011;7429;52.498;13.480;2023-04-15T13:00:26;14.23;;;12.40;;
14681;SDS011;7429;52.498;13.480;2023-04-15T13:03:29;14.07;;;12.67;;
14681;SDS011;7429;52.498;13.480;2023-04-15T13:06:35;13.43;;;12.23;;
14681;SDS011;7429;52.498;13.480;2023-04-15T13:09:38;15.27;;;13.97;;
14681;SDS011;7429;52.498;13.480;2023-04-15T13:12:42;12.73;;;11.57;;
14681;SDS011;7429;52.498;13.480;2023-04-15T13:15:47;14.90;;;13.50;;
14681;SDS011;7429;52.498;13.480;2023-04-15T13:18:51;13.93;;;12.53;;
14681;SDS011;7429;52.498;13.480;2023-04-15T13:21:55;12.67;;;11.33;;
14681;SDS011;7429;52.498;13.480;2023-04-15T13:24:59;12.10;;;11.10;;
14681;SDS011;7429;52.498;13.480;2023-04-15T13:28:04;16.80;;;15.17;;
14681;SDS011;7429;52.498;13.480;2023-04-15T13:31:08;11.33;;;10.37;;
14681;SDS011;7429;52.498;13.480;2023-04-15T13:34:11;11.83;;;10.83;;
14681;SDS011;7429;52.498;13.480;2023-04-15T13:37:16;12.67;;;11.47;;
14681;SDS011;7429;52.498;13.480;2023-04-15T13:40:20;10.93;;;9.83;;
14681;SDS011;7429;52.498;13.480;2023-04-15T13:43:23;18.80;;;17.50;;
14681;SDS011;7429;52.498;13.480;2023-04-15T13:46:29;11.43;;;10.40;;
14681;SDS011;7429;52.498;13.480;2023-04-15T13:49:32;12.43;;;11.47;;
14681;SDS011;7429;52.498;13.480;2023-04-15T13:52:37;11.20;;;10.30;;
14681;SDS011;7429;52.498;13.480;2023-04-15T13:55:58;10.60;;;9.63;;
14681;SDS011;7429;52.498;13.480;2023-04-15T13:59:01;10.33;;;9.50;;
14681;SDS011;7429;52.498;13.480;2023-04-15T14:02:06;10.87;;;9.77;;
14681;SDS011;7429;52.498;13.480;2023-04-15T14:05:09;14.77;;;13.47;;
14681;SDS011;7429;52.498;13.480;2023-04-15T14:08:15;13.27;;;12.27;;
14681;SDS011;7429;52.498;13.480;2023-04-15T14:11:21;12.93;;;11.93;;
14681;SDS011;7429;52.498;13.480;2023-04-15T14:14:24;11.33;;;10.13;;
14681;SDS011;7429;52.498;13.480;2023-04-15T14:17:27;11.43;;;10.13;;
14681;SDS011;7429;52.498;13.480;2023-04-15T14:20:30;14.87;;;13.67;;
14681;SDS011;7429;52.498;13.480;2023-04-15T14:23:35;17.17;;;15.80;;
14681;SDS011;7429;52.498;13.480;2023-04-15T14:26:38;13.27;;;12.07;;
14681;SDS011;7429;52.498;13.480;2023-04-15T14:29:41;14.37;;;13.17;;
14681;SDS011;7429;52.498;13.480;2023-04-15T14:32:44;15.00;;;13.80;;
14681;SDS011;7429;52.498;13.480;2023-04-15T14:35:48;12.17;;;11.17;;
14681;SDS011;7429;52.498;13.480;2023-04-15T14:38:55;16.60;;;15.30;;
14681;SDS011;7429;52.498;13.480;2023-04-15T14:41:58;18.47;;;17.03;;
14681;SDS011;7429;52.498;13.480;2023-04-15T14:45:02;22.07;;;14.10;;
14681;SDS011;7429;52.498;13.480;2023-04-15T14:48:05;11.77;;;10.67;;
14681;SDS011;7429;52.498;13.480;2023-04-15T14:51:10;16.07;;;14.87;;
14681;SDS011;7429;52.498;13.480;2023-04-15T14:54:15;12.47;;;11.37;;
14681;SDS011;7429;52.498;13.480;2023-04-15T14:57:19;12.77;;;11.77;;
14681;SDS011;7429;52.498;13.480;2023-04-15T15:00:23;11.73;;;10.63;;
14681;SDS011;7429;52.498;13.480;2023-04-15T15:03:27;14.60;;;13.40;;
14681;SDS011;7429;52.498;13.480;2023-04-15T15:06:30;13.33;;;12.03;;
14681;SDS011;7429;52.498;13.480;2023-04-15T15:09:36;15.37;;;14.00;;
14681;SDS011;7429;52.498;13.480;2023-04-15T15:12:39;14.07;;;12.67;;
14681;SDS011;7429;52.498;13.480;2023-04-15T15:15:42;11.73;;;10.63;;
14681;SDS011;7429;52.498;13.480;2023-04-15T15:18:45;12.87;;;11.67;;
14681;SDS011;7429;52.498;13.480;2023-04-15T15:21:48;11.97;;;10.77;;
14681;SDS011;7429;52.498;13.480;2023-04-15T15:24:53;11.73;;;10.70;;
14681;SDS011;7429;52.498;13.480;2023-04-15T15:27:59;11.13;;;10.13;;
14681;SDS011;7429;52.498;13.480;2023-04-15T15:31:02;11.93;;;10.77;;
14681;SDS011;7429;52.498;13.480;2023-04-15T15:34:08;11.43;;;10.23;;
14681;SDS011;7429;52.498;13.480;2023-04-15T15:37:18;12.77;;;11.67;;
14681;SDS011;7429;52.498;13.480;2023-04-15T15:40:23;11.93;;;10.93;;
14681;SDS011;7429;52.498;13.480;2023-04-15T15:43:26;10.57;;;9.57;;
14681;SDS011;7429;52.498;13.480;2023-04-15T15:46:33;9.67;;;8.77;;
14681;SDS011;7429;52.498;13.480;2023-04-15T15:49:37;9.60;;;8.80;;
14681;SDS011;7429;52.498;13.480;2023-04-15T15:52:41;9.73;;;8.83;;
14681;SDS011;7429;52.498;13.480;2023-04-15T15:55:45;10.17;;;9.37;;
14681;SDS011;7429;52.498;13.480;2023-04-15T15:58:54;8.97;;;8.17;;
14681;SDS011;7429;52.498;13.480;2023-04-15T16:01:57;10.80;;;10.00;;
14681;SDS011;7429;52.498;13.480;2023-04-15T16:05:01;9.60;;;8.83;;
14681;SDS011;7429;52.498;13.480;2023-04-15T16:08:07;11.60;;;10.67;;
14681;SDS011;7429;52.498;13.480;2023-04-15T16:11:11;9.83;;;9.03;;
14681;SDS011;7429;52.498;13.480;2023-04-15T16:14:15;10.13;;;9.33;;
14681;SDS011;7429;52.498;13.480;2023-04-15T16:17:19;11.50;;;10.40;;
14681;SDS011;7429;52.498;13.480;2023-04-15T16:20:24;10.37;;;9.47;;
14681;SDS011;7429;52.498;13.480;2023-04-15T16:23:29;10.67;;;9.67;;
14681;SDS011;7429;52.498;13.480;2023-04-15T16:26:34;11.40;;;10.17;;
14681;SDS011;7429;52.498;13.480;2023-04-15T16:29:38;10.80;;;9.80;;
14681;SDS011;7429;52.498;13.480;2023-04-15T16:32:42;10.03;;;9.13;;
14681;SDS011;7429;52.498;13.480;2023-04-15T16:35:45;9.90;;;9.07;;
14681;SDS011;7429;52.498;13.480;2023-04-15T16:38:48;10.10;;;9.20;;
14681;SDS011;7429;52.498;13.480;2023-04-15T16:41:53;10.03;;;9.13;;
14681;SDS011;7429;52.498;13.480;2023-04-15T16:44:57;9.97;;;9.17;;
14681;SDS011;7429;52.498;13.480;2023-04-15T16:48:01;10.80;;;9.97;;
14681;SDS011;7429;52.498;13.480;2023-04-15T16:51:20;10.60;;;9.70;;
14681;SDS011;7429;52.498;13.480;2023-04-15T16:54:26;10.17;;;9.17;;
14681;SDS011;7429;52.498;13.480;2023-04-15T16:57:31;9.90;;;9.00;;
14681;SDS011;7429;52.498;13.480;2023-04-15T17:00:57;9.70;;;8.80;;
14681;SDS011;7429;52.498;13.480;2023-04-15T17:04:01;9.87;;;9.07;;
14681;SDS011;7429;52.498;13.480;2023-04-15T17:07:08;9.40;;;8.57;;
14681;SDS011;7429;52.498;13.480;2023-04-15T17:10:11;9.90;;;8.93;;
14681;SDS011;7429;52.498;13.480;2023-04-15T17:13:16;10.47;;;9.57;;
14681;SDS011;7429;52.498;13.480;2023-04-15T17:16:19;11.30;;;10.20;;
14681;SDS011;7429;52.498;13.480;2023-04-15T17:19:22;10.53;;;9.60;;
14681;SDS011;7429;52.498;13.480;2023-04-15T17:22:36;10.13;;;9.33;;
14681;SDS011;7429;52.498;13.480;2023-04-15T17:25:40;11.83;;;10.73;;
14681;SDS011;7429;52.498;13.480;2023-04-15T17:28:44;11.33;;;10.43;;
14681;SDS011;7429;52.498;13.480;2023-04-15T17:31:55;10.57;;;9.60;;
14681;SDS011;7429;52.498;13.480;2023-04-15T17:35:18;9.77;;;8.97;;
14681;SDS011;7429;52.498;13.480;2023-04-15T17:38:41;10.30;;;9.30;;
14681;SDS011;7429;52.498;13.480;2023-04-15T17:42:05;10.83;;;9.83;;
14681;SDS011;7429;52.498;13.480;2023-04-15T17:45:30;11.23;;;9.30;;
14681;SDS011;7429;52.498;13.480;2023-04-15T17:48:54;9.70;;;8.70;;
14681;SDS011;7429;52.498;13.480;2023-04-15T17:52:19;10.60;;;9.63;;
14681;SDS011;7429;52.498;13.480;2023-04-15T17:55:50;11.30;;;10.30;;
14681;SDS011;7429;52.498;13.480;2023-04-15T17:59:14;10.87;;;9.77;;
14681;SDS011;7429;52.498;13.480;2023-04-15T18:02:38;10.03;;;9.03;;
14681;SDS011;7429;52.498;13.480;2023-04-15T18:06:02;11.00;;;10.00;;
14681;SDS011;7429;52.498;13.480;2023-04-15T18:09:25;9.93;;;9.13;;
14681;SDS011;7429;52.498;13.480;2023-04-15T18:12:49;10.67;;;8.97;;